createdAt,value
2019-02-10T00:01:02.216Z,97750.77
2019-02-10T00:03:33.815Z,97736.09
2019-02-10T00:06:04.093Z,97736.64
2019-02-10T00:08:34.347Z,97734.45
2019-02-10T00:11:04.501Z,97729.88
2019-02-10T00:13:36.238Z,97728.80
2019-02-10T00:16:24.978Z,97726.67
2019-02-10T00:18:55.307Z,97730.91
2019-02-10T00:21:25.731Z,97721.00
2019-02-10T00:23:56.025Z,97721.02
2019-02-10T00:26:26.250Z,97724.73
2019-02-10T00:28:56.429Z,97716.98
2019-02-10T00:31:26.999Z,97719.08
2019-02-10T00:33:58.518Z,97716.38
2019-02-10T00:36:33.475Z,97699.80
2019-02-10T00:39:01.013Z,97701.20
2019-02-10T00:41:31.287Z,97690.00
2019-02-10T00:44:01.601Z,97690.83
2019-02-10T00:46:32.136Z,97686.00
2019-02-10T00:49:02.587Z,97688.66
2019-02-10T00:51:32.904Z,97677.45
2019-02-10T00:54:03.234Z,97683.30
2019-02-10T00:56:33.531Z,97681.41
2019-02-10T00:59:03.701Z,97677.64
2019-02-10T01:01:33.947Z,97677.86
2019-02-10T01:04:04.576Z,97676.23
2019-02-10T01:06:41.225Z,97665.83
2019-02-10T01:09:07.960Z,97667.44
2019-02-10T01:11:39.727Z,97660.80
2019-02-10T01:14:11.238Z,97668.56
2019-02-10T01:16:41.506Z,97668.30
2019-02-10T01:19:12.587Z,97665.88
2019-02-10T01:21:46.247Z,97668.52
2019-02-10T01:24:16.476Z,97665.05
2019-02-10T01:26:46.936Z,97655.45
2019-02-10T01:29:17.381Z,97645.08
2019-02-10T01:31:47.647Z,97650.95
2019-02-10T01:34:17.810Z,97645.08
2019-02-10T01:36:49.628Z,97642.37
2019-02-10T01:39:21.702Z,97646.84
2019-02-10T01:41:52.287Z,97645.28
2019-02-10T01:44:22.671Z,97646.09
2019-02-10T01:46:52.778Z,97631.96
2019-02-10T01:49:23.165Z,97629.82
2019-02-10T01:51:53.374Z,97617.59
2019-02-10T01:54:23.537Z,97609.02
2019-02-10T01:56:53.768Z,97602.13
2019-02-10T01:59:23.988Z,97589.59
2019-02-10T02:01:54.192Z,97587.20
2019-02-10T02:04:24.378Z,97585.84
2019-02-10T02:06:57.905Z,97569.82
2019-02-10T02:09:26.851Z,97565.79
2019-02-10T02:11:57.016Z,97556.98
2019-02-10T02:14:27.529Z,97554.05
2019-02-10T02:16:57.954Z,97536.70
2019-02-10T02:19:28.278Z,97527.41
2019-02-10T02:21:58.557Z,97532.21
2019-02-10T02:24:28.725Z,97518.84
2019-02-10T02:26:59.048Z,97503.91
2019-02-10T02:29:29.270Z,97498.59
2019-02-10T02:31:59.366Z,97494.30
2019-02-10T02:34:29.631Z,97488.14
2019-02-10T02:37:07.728Z,97484.95
2019-02-10T02:39:31.679Z,97489.78
2019-02-10T02:42:02.007Z,97484.68
2019-02-10T02:44:32.917Z,97476.13
2019-02-10T02:47:03.312Z,97467.83
2019-02-10T02:49:33.695Z,97467.59
2019-02-10T02:52:04.025Z,97470.00
2019-02-10T02:54:34.257Z,97453.16
2019-02-10T02:57:04.511Z,97448.09
2019-02-10T02:59:34.702Z,97437.41
2019-02-10T03:02:05.582Z,97425.37
2019-02-10T03:04:35.691Z,97418.98
2019-02-10T03:07:06.051Z,97412.86
2019-02-10T03:09:36.283Z,97406.72
2019-02-10T03:12:06.513Z,97414.72
2019-02-10T03:14:36.775Z,97405.64
2019-02-10T03:17:06.917Z,97401.62
2019-02-10T03:19:37.033Z,97394.42
2019-02-10T03:22:07.218Z,97386.95
2019-02-10T03:24:37.469Z,97379.73
2019-02-10T03:27:07.586Z,97370.67
2019-02-10T03:29:38.890Z,97369.33
2019-02-10T03:32:09.059Z,97362.66
2019-02-10T03:34:39.270Z,97360.52
2019-02-10T03:37:09.586Z,97351.70
2019-02-10T03:39:39.794Z,97344.51
2019-02-10T03:42:09.997Z,97340.75
2019-02-10T03:44:40.131Z,97331.69
2019-02-10T03:47:10.276Z,97328.75
2019-02-10T03:49:40.430Z,97316.17
2019-02-10T03:52:10.672Z,97312.44
2019-02-10T03:54:40.790Z,97307.38
2019-02-10T03:57:11.021Z,97303.93
2019-02-10T03:59:41.130Z,97294.59
2019-02-10T04:02:11.440Z,97288.16
2019-02-10T04:04:41.668Z,97284.41
2019-02-10T04:07:11.910Z,97277.48
2019-02-10T04:09:42.162Z,97272.67
2019-02-10T04:12:12.305Z,97265.47
2019-02-10T04:14:42.427Z,97257.17
2019-02-10T04:17:12.622Z,97255.31
2019-02-10T04:19:42.928Z,97260.41
2019-02-10T04:22:13.067Z,97256.67
2019-02-10T04:24:43.192Z,97256.67
2019-02-10T04:27:13.552Z,97250.25
2019-02-10T04:29:43.753Z,97247.86
2019-02-10T04:32:13.948Z,97228.36
2019-02-10T04:34:44.167Z,97229.42
2019-02-10T04:37:14.377Z,97221.69
2019-02-10T04:39:44.859Z,97221.45
2019-02-10T04:42:15.376Z,97219.55
2019-02-10T04:44:45.556Z,97209.96
2019-02-10T04:47:15.803Z,97222.28
2019-02-10T04:49:45.966Z,97212.10
2019-02-10T04:52:16.145Z,97209.19
2019-02-10T04:54:46.753Z,97199.03
2019-02-10T04:57:17.223Z,97192.33
2019-02-10T04:59:47.692Z,97186.70
2019-02-10T05:02:17.891Z,97185.37
2019-02-10T05:04:48.040Z,97185.37
2019-02-10T05:07:18.259Z,97182.45
2019-02-10T05:09:49.203Z,97184.56
2019-02-10T05:12:19.728Z,97178.45
2019-02-10T05:14:50.987Z,97160.34
2019-02-10T05:17:21.231Z,97155.00
2019-02-10T05:19:51.354Z,97140.61
2019-02-10T05:22:21.532Z,97140.61
2019-02-10T05:24:51.659Z,97134.75
2019-02-10T05:27:22.025Z,97136.08
2019-02-10T05:29:52.137Z,97128.64
2019-02-10T05:32:22.310Z,97124.34
2019-02-10T05:34:52.591Z,97130.45
2019-02-10T05:37:22.731Z,97126.69
2019-02-10T05:39:52.897Z,97124.83
2019-02-10T05:42:23.073Z,97114.15
2019-02-10T05:44:53.692Z,97110.91
2019-02-10T05:47:24.058Z,97106.91
2019-02-10T05:49:54.418Z,97098.64
2019-02-10T05:52:24.758Z,97104.50
2019-02-10T05:54:54.955Z,97086.34
2019-02-10T05:57:25.179Z,97079.41
2019-02-10T05:59:55.494Z,97072.48
2019-02-10T06:02:44.192Z,97068.49
2019-02-10T06:05:23.018Z,97057.59
2019-02-10T06:07:54.143Z,97058.69
2019-02-10T06:10:24.492Z,97053.86
2019-02-10T06:12:54.843Z,97052.75
2019-02-10T06:15:24.981Z,97046.84
2019-02-10T06:17:55.283Z,97044.48
2019-02-10T06:20:25.438Z,97036.51
2019-02-10T06:22:55.634Z,97032.17
2019-02-10T06:25:25.893Z,97033.23
2019-02-10T06:27:56.264Z,97023.84
2019-02-10T06:30:26.368Z,97018.51
2019-02-10T06:32:56.608Z,97017.95
2019-02-10T06:35:26.758Z,97022.99
2019-02-10T06:37:57.040Z,97012.56
2019-02-10T06:40:27.757Z,97002.91
2019-02-10T06:42:58.008Z,97015.72
2019-02-10T06:45:28.219Z,97016.76
2019-02-10T06:47:58.681Z,97015.19
2019-02-10T06:50:28.937Z,97014.61
2019-02-10T06:52:59.080Z,97014.06
2019-02-10T06:55:29.238Z,97015.89
2019-02-10T06:57:59.513Z,97016.62
2019-02-10T07:00:39.912Z,97023.48
2019-02-10T07:03:50.528Z,97017.47
2019-02-10T07:06:20.792Z,97017.79
2019-02-10T07:08:50.943Z,97008.43
2019-02-10T07:11:21.174Z,97005.03
2019-02-10T07:14:02.007Z,96996.91
2019-02-10T07:16:48.833Z,96981.50
2019-02-10T07:19:54.773Z,96975.14
2019-02-10T07:23:21.599Z,96973.47
2019-02-10T07:25:56.676Z,96961.33
2019-02-10T07:29:17.065Z,96960.58
2019-02-10T07:31:59.476Z,96948.92
2019-02-10T07:35:09.708Z,96945.83
2019-02-10T07:38:00.318Z,96936.70
2019-02-10T07:40:56.789Z,96933.09
2019-02-10T07:43:56.248Z,96915.45
2019-02-10T07:46:58.043Z,96906.83
2019-02-10T07:49:40.444Z,96899.56
2019-02-10T07:52:56.734Z,96882.08
2019-02-10T07:56:26.303Z,96873.48
2019-02-10T07:59:40.161Z,96865.48
2019-02-10T08:02:44.707Z,96853.75
2019-02-10T08:05:42.500Z,96847.91
2019-02-10T08:08:50.598Z,96841.62
2019-02-10T08:12:07.721Z,96831.23
2019-02-10T08:14:46.543Z,96829.11
2019-02-10T08:17:43.787Z,96819.12
2019-02-10T08:20:55.838Z,96814.45
2019-02-10T08:24:06.384Z,96804.24
2019-02-10T08:27:08.003Z,96801.48
2019-02-10T08:30:12.859Z,96789.48
2019-02-10T08:33:28.005Z,96784.69
2019-02-10T08:36:19.671Z,96772.00
2019-02-10T08:39:27.054Z,96762.91
2019-02-10T08:42:42.042Z,96761.39
2019-02-10T08:45:43.451Z,96751.27
2019-02-10T08:49:10.198Z,96739.48
2019-02-10T08:52:24.592Z,96732.31
2019-02-10T08:54:55.887Z,96732.30
2019-02-10T08:57:26.124Z,96732.18
2019-02-10T08:59:56.304Z,96730.83
2019-02-10T09:02:26.471Z,96724.42
2019-02-10T09:04:56.939Z,96727.30
2019-02-10T09:07:27.617Z,96725.70
2019-02-10T09:09:58.040Z,96711.48
2019-02-10T09:12:28.627Z,96713.03
2019-02-10T09:14:59.099Z,96713.23
2019-02-10T09:17:29.496Z,96712.56
2019-02-10T09:19:59.849Z,96706.15
2019-02-10T09:22:30.496Z,96697.59
2019-02-10T09:25:00.810Z,96677.27
2019-02-10T09:27:31.238Z,96672.00
2019-02-10T09:30:01.633Z,96673.25
2019-02-10T09:32:32.603Z,96659.73
2019-02-10T09:35:03.052Z,96656.49
2019-02-10T09:37:33.652Z,96660.77
2019-02-10T09:40:04.231Z,96656.03
2019-02-10T09:42:34.543Z,96650.15
2019-02-10T09:45:05.788Z,96642.84
2019-02-10T09:47:36.727Z,96638.17
2019-02-10T09:50:11.700Z,96630.70
2019-02-10T09:52:42.409Z,96632.72
2019-02-10T09:55:12.877Z,96612.66
2019-02-10T09:57:44.244Z,96620.20
2019-02-10T10:00:16.330Z,96614.72
2019-02-10T10:02:47.192Z,96617.16
2019-02-10T10:05:18.728Z,96610.23
2019-02-10T10:07:49.184Z,96615.66
2019-02-10T10:10:19.801Z,96609.69
2019-02-10T10:12:50.383Z,96596.39
2019-02-10T10:15:21.391Z,96596.73
2019-02-10T10:17:52.802Z,96587.73
2019-02-10T10:20:23.202Z,96579.56
2019-02-10T10:22:53.686Z,96577.02
2019-02-10T10:25:24.108Z,96570.16
2019-02-10T10:27:54.619Z,96562.92
2019-02-10T10:30:24.817Z,96551.58
2019-02-10T10:32:55.637Z,96551.11
2019-02-10T10:35:33.021Z,96546.09
2019-02-10T10:38:03.269Z,96543.45
2019-02-10T10:40:33.826Z,96536.88
2019-02-10T10:43:04.398Z,96539.46
2019-02-10T10:45:36.241Z,96534.11
2019-02-10T10:48:06.713Z,96532.77
2019-02-10T10:50:37.245Z,96521.67
2019-02-10T10:53:07.654Z,96522.02
2019-02-10T10:55:38.339Z,96523.33
2019-02-10T10:58:08.769Z,96516.05
2019-02-10T11:00:39.504Z,96499.62
2019-02-10T11:03:09.882Z,96495.34
2019-02-10T11:05:40.132Z,96490.09
2019-02-10T11:08:10.488Z,96483.84
2019-02-10T11:10:40.705Z,96477.88
2019-02-10T11:13:13.654Z,96480.56
2019-02-10T11:15:43.997Z,96471.13
2019-02-10T11:18:14.589Z,96456.64
2019-02-10T11:20:45.294Z,96456.02
2019-02-10T11:23:15.599Z,96438.96
2019-02-10T11:25:46.021Z,96443.94
2019-02-10T11:28:17.649Z,96450.11
2019-02-10T11:30:48.550Z,96436.66
2019-02-10T11:33:18.984Z,96410.54
2019-02-10T11:35:49.251Z,96405.00
2019-02-10T11:38:19.608Z,96402.63
2019-02-10T11:40:49.841Z,96392.37
2019-02-10T11:43:20.162Z,96384.59
2019-02-10T11:45:50.363Z,96389.63
2019-02-10T11:48:20.900Z,96385.64
2019-02-10T11:50:51.288Z,96374.91
2019-02-10T11:53:22.405Z,96365.60
2019-02-10T11:55:53.004Z,96355.05
2019-02-10T11:58:23.499Z,96353.86
2019-02-10T12:00:54.271Z,96350.42
2019-02-10T12:03:24.625Z,96348.27
2019-02-10T12:05:55.200Z,96314.33
2019-02-10T12:08:34.997Z,96320.46
2019-02-10T12:10:57.792Z,96331.24
2019-02-10T12:13:28.324Z,96321.19
2019-02-10T12:15:58.928Z,96312.27
2019-02-10T12:18:29.453Z,96321.91
2019-02-10T12:20:59.860Z,96302.30
2019-02-10T12:23:30.410Z,96302.52
2019-02-10T12:26:00.899Z,96300.88
2019-02-10T12:28:31.693Z,96295.92
2019-02-10T12:31:02.339Z,96302.52
2019-02-10T12:33:32.820Z,96293.44
2019-02-10T12:36:03.392Z,96284.55
2019-02-10T12:38:33.822Z,96296.88
2019-02-10T12:41:04.198Z,96281.04
2019-02-10T12:43:34.672Z,96275.39
2019-02-10T12:46:05.070Z,96274.16
2019-02-10T12:48:35.610Z,96285.31
2019-02-10T12:51:05.775Z,96297.22
2019-02-10T12:53:36.100Z,96292.61
2019-02-10T12:56:06.625Z,96274.73
2019-02-10T12:58:37.259Z,96298.82
2019-02-10T13:01:07.830Z,96307.13
2019-02-10T13:03:40.149Z,96325.78
2019-02-10T13:06:10.844Z,96326.41
2019-02-10T13:08:41.180Z,96320.38
2019-02-10T13:11:11.550Z,96340.60
2019-02-10T13:13:41.861Z,96332.59
2019-02-10T13:16:12.497Z,96364.23
2019-02-10T13:18:42.979Z,96354.97
2019-02-10T13:21:13.355Z,96362.99
2019-02-10T13:23:43.530Z,96364.61
2019-02-10T13:26:14.485Z,96393.95
2019-02-10T13:28:44.951Z,96388.69
2019-02-10T13:31:15.529Z,96378.63
2019-02-10T13:33:46.132Z,96359.41
2019-02-10T13:36:16.610Z,96351.30
2019-02-10T13:38:47.356Z,96361.98
2019-02-10T13:41:17.905Z,96348.50
2019-02-10T13:43:48.563Z,96340.06
2019-02-10T13:46:20.145Z,96342.70
2019-02-10T13:48:50.455Z,96329.48
2019-02-10T13:51:21.056Z,96302.23
2019-02-10T13:53:51.600Z,96292.59
2019-02-10T13:56:22.117Z,96300.94
2019-02-10T13:58:53.410Z,96292.41
2019-02-10T14:01:24.451Z,96305.81
2019-02-10T14:03:54.900Z,96313.55
2019-02-10T14:06:25.448Z,96315.12
2019-02-10T14:08:55.950Z,96309.59
2019-02-10T14:11:26.404Z,96312.45
2019-02-10T14:13:57.585Z,96300.75
2019-02-10T14:16:28.307Z,96294.88
2019-02-10T14:18:58.698Z,96293.11
2019-02-10T14:21:29.271Z,96289.77
2019-02-10T14:23:59.762Z,96300.88
2019-02-10T14:26:30.635Z,96302.23
2019-02-10T14:29:01.233Z,96300.14
2019-02-10T14:31:31.608Z,96287.44
2019-02-10T14:34:03.422Z,96280.75
2019-02-10T14:36:34.888Z,96289.63
2019-02-10T14:39:05.982Z,96289.16
2019-02-10T14:41:37.874Z,96280.92
2019-02-10T14:51:02.791Z,96276.83
2019-02-10T14:53:32.935Z,96265.63
2019-02-10T14:56:03.771Z,96273.50
2019-02-10T14:58:41.832Z,96261.80
2019-02-10T15:01:06.966Z,96256.44
2019-02-10T15:03:37.582Z,96268.80
2019-02-10T15:06:08.105Z,96262.94
2019-02-10T15:08:38.760Z,96241.23
2019-02-10T15:11:09.375Z,96250.47
2019-02-10T15:13:39.935Z,96252.62
2019-02-10T15:16:10.439Z,96235.08
2019-02-10T15:18:40.950Z,96219.33
2019-02-10T15:21:11.715Z,96232.60
2019-02-10T15:23:42.309Z,96249.83
2019-02-10T15:26:13.638Z,96248.12
2019-02-10T15:28:44.340Z,96245.43
2019-02-10T15:31:15.464Z,96252.50
2019-02-10T15:33:45.989Z,96269.94
2019-02-10T15:36:16.385Z,96281.84
2019-02-10T15:38:47.030Z,96299.13
2019-02-10T15:41:17.582Z,96307.00
2019-02-10T15:43:47.933Z,96316.45
2019-02-10T15:46:18.476Z,96324.48
2019-02-10T15:48:48.921Z,96353.83
2019-02-10T15:51:28.559Z,96341.41
2019-02-10T15:53:51.865Z,96358.93
2019-02-10T15:56:22.524Z,96363.50
2019-02-10T15:58:52.759Z,96352.45
2019-02-10T16:01:22.952Z,96354.05
2019-02-10T16:03:53.929Z,96365.39
2019-02-10T16:06:24.239Z,96363.59
2019-02-10T16:08:54.652Z,96369.58
2019-02-10T16:11:25.569Z,96371.14
2019-02-10T16:13:55.830Z,96385.70
2019-02-10T16:16:26.227Z,96400.47
2019-02-10T16:18:57.030Z,96412.54
2019-02-10T16:21:27.708Z,96415.23
2019-02-10T16:23:58.120Z,96440.21
2019-02-10T16:26:28.874Z,96439.28
2019-02-10T16:28:59.217Z,96452.02
2019-02-10T16:31:36.887Z,96451.42
2019-02-10T16:34:07.361Z,96444.39
2019-02-10T16:36:37.959Z,96434.83
2019-02-10T16:39:12.386Z,96422.23
2019-02-10T16:41:43.188Z,96444.96
2019-02-10T16:44:13.983Z,96437.84
2019-02-10T16:46:44.685Z,96440.45
2019-02-10T16:49:15.297Z,96451.38
2019-02-10T16:51:45.999Z,96447.61
2019-02-10T16:54:16.565Z,96448.14
2019-02-10T16:56:46.884Z,96444.92
2019-02-10T16:59:17.276Z,96440.17
2019-02-10T17:01:48.127Z,96453.77
2019-02-10T17:04:18.643Z,96461.75
2019-02-10T17:06:49.614Z,96455.62
2019-02-10T17:09:20.061Z,96458.93
2019-02-10T17:11:51.149Z,96460.28
2019-02-10T17:14:21.761Z,96456.17
2019-02-10T17:16:52.173Z,96471.59
2019-02-10T17:19:22.639Z,96475.77
2019-02-10T17:21:53.465Z,96478.86
2019-02-10T17:24:23.875Z,96504.66
2019-02-10T17:26:54.203Z,96517.30
2019-02-10T17:29:24.819Z,96526.45
2019-02-10T17:31:55.365Z,96544.17
2019-02-10T17:34:25.840Z,96557.47
2019-02-10T17:36:56.840Z,96536.17
2019-02-10T17:39:27.428Z,96513.25
2019-02-10T17:41:58.067Z,96489.45
2019-02-10T17:44:28.464Z,96531.98
2019-02-10T17:47:16.776Z,96553.17
2019-02-10T17:49:47.283Z,96589.20
2019-02-10T17:52:17.805Z,96642.95
2019-02-10T17:54:49.634Z,96641.83
2019-02-10T17:57:20.811Z,96673.89
2019-02-10T17:59:51.318Z,96662.47
2019-02-10T18:02:22.013Z,96656.55
2019-02-10T18:04:52.192Z,96657.53
2019-02-10T18:07:22.680Z,96657.53
2019-02-10T18:09:53.025Z,96666.36
2019-02-10T18:12:23.861Z,96671.59
2019-02-10T18:15:19.631Z,96670.44
2019-02-10T18:18:08.849Z,96694.16
2019-02-10T18:20:47.038Z,96706.77
2019-02-10T18:23:27.174Z,96722.32
2019-02-10T18:26:16.546Z,96745.00
2019-02-10T18:29:03.269Z,96751.70
2019-02-10T18:31:45.583Z,96735.83
2019-02-10T18:34:40.773Z,96767.91
2019-02-10T18:37:36.497Z,96760.80
2019-02-10T18:40:27.060Z,96772.03
2019-02-10T18:43:10.809Z,96771.73
2019-02-10T18:46:01.023Z,96776.86
2019-02-10T18:48:53.289Z,96780.97
2019-02-10T18:51:51.524Z,96786.36
2019-02-10T18:54:44.237Z,96796.95
2019-02-10T18:57:25.385Z,96800.55
2019-02-10T19:00:13.574Z,96800.39
2019-02-10T19:03:01.919Z,96816.26
2019-02-10T19:06:00.102Z,96823.35
2019-02-10T19:08:38.486Z,96848.69
2019-02-10T19:11:15.223Z,96863.25
2019-02-10T19:13:55.207Z,96876.87
2019-02-10T19:16:50.649Z,96869.37
2019-02-10T19:19:28.905Z,96862.75
2019-02-10T19:22:16.977Z,96870.52
2019-02-10T19:25:06.151Z,96872.95
2019-02-10T19:28:02.345Z,96874.06
2019-02-10T19:30:46.737Z,96875.70
2019-02-10T19:33:33.911Z,96885.08
2019-02-10T19:36:12.301Z,96884.40
2019-02-10T19:38:58.205Z,96891.33
2019-02-10T19:41:38.976Z,96896.72
2019-02-10T19:44:15.263Z,96884.34
2019-02-10T19:47:04.827Z,96889.80
2019-02-10T19:49:54.241Z,96896.12
2019-02-10T19:52:42.600Z,96889.70
2019-02-10T19:55:23.309Z,96882.23
2019-02-10T19:58:09.288Z,96867.34
2019-02-10T20:00:57.649Z,96867.63
2019-02-10T20:03:56.434Z,96859.84
2019-02-10T20:06:48.767Z,96871.19
2019-02-10T20:09:31.882Z,96856.66
2019-02-10T20:12:08.697Z,96847.45
2019-02-10T20:15:04.315Z,96857.30
2019-02-10T20:17:53.583Z,96846.48
2019-02-10T20:20:43.328Z,96856.89
2019-02-10T20:23:30.784Z,96866.50
2019-02-10T20:26:31.400Z,96878.75
2019-02-10T20:29:25.757Z,96874.09
2019-02-10T20:32:10.484Z,96885.67
2019-02-10T20:34:52.513Z,96881.58
2019-02-10T20:37:42.445Z,96893.30
2019-02-10T20:40:35.439Z,96901.60
2019-02-10T20:43:25.026Z,96903.81
2019-02-10T20:46:14.041Z,96907.11
2019-02-10T20:49:12.525Z,96921.30
2019-02-10T20:52:02.967Z,96931.98
2019-02-10T20:54:41.127Z,96922.37
2019-02-10T20:57:46.321Z,96928.03
2019-02-10T21:00:50.269Z,96933.45
2019-02-10T21:03:41.753Z,96924.97
2019-02-10T21:06:32.036Z,96958.77
2019-02-10T21:09:24.890Z,96955.14
2019-02-10T21:12:20.973Z,96960.58
2019-02-10T21:15:04.689Z,96965.23
2019-02-10T21:17:49.001Z,96975.30
2019-02-10T21:20:26.155Z,96974.18
2019-02-10T21:23:15.601Z,97025.29
2019-02-10T21:26:05.396Z,96994.20
2019-02-10T21:29:03.811Z,96983.67
2019-02-10T21:31:56.021Z,96995.37
2019-02-10T21:34:45.378Z,97005.42
2019-02-10T21:37:20.831Z,96991.52
2019-02-10T21:40:13.933Z,97000.69
2019-02-10T21:43:18.730Z,96999.73
2019-02-10T21:46:03.394Z,97013.44
2019-02-10T21:48:53.707Z,97032.98
2019-02-10T21:51:24.301Z,97032.78
2019-02-10T21:53:54.785Z,97025.59
2019-02-10T21:56:25.582Z,97021.90
2019-02-10T21:58:55.911Z,97023.33
2019-02-10T22:01:26.247Z,97032.19
2019-02-10T22:03:57.021Z,97041.28
2019-02-10T22:06:27.462Z,97033.56
2019-02-10T22:08:57.794Z,97047.23
2019-02-10T22:11:28.112Z,97055.77
2019-02-10T22:13:58.915Z,97058.53
2019-02-10T22:16:29.274Z,97066.58
2019-02-10T22:18:59.937Z,97072.81
2019-02-10T22:21:30.307Z,97071.48
2019-02-10T22:24:00.784Z,97076.10
2019-02-10T22:26:31.013Z,97082.21
2019-02-10T22:29:01.908Z,97082.25
2019-02-10T22:31:32.157Z,97081.45
2019-02-10T22:34:02.573Z,97082.21
2019-02-10T22:36:33.517Z,97080.95
2019-02-10T22:39:04.536Z,97079.59
2019-02-10T22:41:34.837Z,97080.10
2019-02-10T22:44:05.170Z,97079.08
2019-02-10T22:46:35.617Z,97082.03
2019-02-10T22:49:06.276Z,97087.10
2019-02-10T22:51:36.537Z,97094.00
2019-02-10T22:54:06.778Z,97093.02
2019-02-10T22:56:37.426Z,97106.37
2019-02-10T22:59:07.685Z,97098.88
2019-02-10T23:01:37.910Z,97106.59
2019-02-10T23:04:08.452Z,97104.43
2019-02-10T23:06:38.780Z,97111.86
2019-02-10T23:09:13.927Z,97115.80
2019-02-10T23:11:45.178Z,97124.62
2019-02-10T23:14:15.326Z,97122.69
2019-02-10T23:16:45.540Z,97115.77
2019-02-10T23:19:15.706Z,97117.12
2019-02-10T23:21:46.128Z,97128.63
2019-02-10T23:24:16.381Z,97142.55
2019-02-10T23:26:46.972Z,97147.61
2019-02-10T23:29:17.429Z,97144.44
2019-02-10T23:31:47.607Z,97150.05
2019-02-10T23:34:18.036Z,97156.45
2019-02-10T23:36:48.320Z,97160.46
2019-02-10T23:39:18.586Z,97167.13
2019-02-10T23:41:48.618Z,97177.58
2019-02-10T23:44:18.820Z,97194.90
2019-02-10T23:46:48.968Z,97198.66
2019-02-10T23:49:19.172Z,97210.91
2019-02-10T23:51:49.525Z,97216.83
2019-02-10T23:54:19.775Z,97222.41
2019-02-10T23:56:49.985Z,97223.75
2019-02-10T23:59:20.741Z,97232.85
